Arpan, South Dakota
Current Conditions -  °F | °C
As of 10:35 AM on Wednesday 26 Nov 2014 (Local Time) from KSPF Reporting Station
Unknown Precip Unknown Precip  
Wind Chill: 18°   Ceiling: Unl
Heat Index: 28°   Visibility: 9mi
Dew Point: 23°   Wind: 12mph
Humidity: 80%   Direction: 310°NW
Pressure: 30.21"   Gusts: NA
Location:  44.6391°N, 103.522°W
Report Text: KSPF 261735Z AUTO 31010KT 9SM UP SCT019 M02/M05 A3021 RMK AO2
Loading
Personal Weather Stations






























Interactive Weather Map New forecast layout! Learn more

10-Day Weather Forecast

Advertisements
Track Severe Weather on mobile